Greeley, NE

6:31 AM CDT on April 30, 2017 (GMT -0500)
JPHanson-Davis Addition | | Change Station

Elev 1964 ft 41.49 °N, 98.77 °W | Updated 14 seconds ago

Ice Pellets
Ice Pellets
34.5 °F
Feels Like 29 °F
N
6.0
Wind Variable Wind from NNW

Today
High -- | Low -- °F
--% Chance of Precip.
Yesterday
High -- | Low -- °F
Precip. -- in
Pressure 29.90 in
Visibility 7.0 miles
Clouds Mostly Cloudy 2500 ft
Overcast 3100 ft
Windchill 29 °F
Dew Point 34 °F
Humidity 98%
Rainfall 0.07 in
Snow Depth Not available.
6:31 AM 8:31 PM
Waxing Crescent, 22% visible
SPECI KODX 301125Z AUTO 02015KT 7SM RA BKN025 OVC031 03/00 A2990 RMK AO2 P0003 T00280000
Pressure 29.90 in
Visibility 7.0 miles
Clouds Mostly Cloudy 2500 ft
Overcast 3100 ft
Windchill 29 °F
Dew Point 34 °F
Humidity 98%
Rainfall 0.07 in
Snow Depth Not available.
6:31 AM 8:31 PM
Waxing Crescent, 22% visible
SPECI KODX 301125Z AUTO 02015KT 7SM RA BKN025 OVC031 03/00 A2990 RMK AO2 P0003 T00280000

Get Severe Weather Alerts

Thanks for signing up!

Be on the lookout for a verification email in your inbox.

You'll start receiving the daily forecast at 8 AM.

×

10-Day Weather Forecast

Almanac

Astronomy

Apr. 30, 2017 Rise Set
Actual Time
Civil Twilight
Nautical Twilight
Astronomical Twilight
Moon
Length of Visible Light
Length of Day
Tomorrow will be .
, % of the Moon is Illuminated

Today's Extremes

State Highs State Lows

Community

WunderPhotos

WunderBlog® & News

Nearby

Air Quality

  Air Quality AQ Index Pollutant
Not available.

Snow Depth

Station Depth Elevation

Earthquake Activity

City Distance Mag. Time & Date
Minimum magnitude displayed is 2.5.

Coastal Water Temperatures

Place Temperature

Stations

Nearby Weather Stations

Station Location Temp. Windchill Dew Point Humidity Wind Precip. Elev Updated Type
                   

Watches & Warnings

There are currently no watches in effect.